sensor_id;sensor_type;location;lat;lon;timestamp;pressure;altitude;pressure_sealevel;temperature;humidity
61478;BME280;47345;52.334;10.392;2023-03-03T00:00:01;101677.09;;;1.13;89.56
61478;BME280;47345;52.334;10.392;2023-03-03T00:02:32;101678.00;;;1.09;89.28
61478;BME280;47345;52.334;10.392;2023-03-03T00:05:04;101680.40;;;1.05;89.31
61478;BME280;47345;52.334;10.392;2023-03-03T00:07:35;101679.45;;;1.08;89.86
61478;BME280;47345;52.334;10.392;2023-03-03T00:10:07;101670.11;;;1.10;89.60
61478;BME280;47345;52.334;10.392;2023-03-03T00:12:47;101668.11;;;1.11;89.55
61478;BME280;47345;52.334;10.392;2023-03-03T00:15:20;101668.58;;;1.14;89.82
61478;BME280;47345;52.334;10.392;2023-03-03T00:17:51;101670.04;;;1.16;89.96
61478;BME280;47345;52.334;10.392;2023-03-03T00:20:33;101679.58;;;1.21;90.12
61478;BME280;47345;52.334;10.392;2023-03-03T00:23:22;101692.83;;;1.23;89.87
61478;BME280;47345;52.334;10.392;2023-03-03T00:25:56;101706.14;;;1.23;89.92
61478;BME280;47345;52.334;10.392;2023-03-03T00:28:29;101710.86;;;1.25;90.05
61478;BME280;47345;52.334;10.392;2023-03-03T00:31:01;101710.03;;;1.24;89.73
61478;BME280;47345;52.334;10.392;2023-03-03T00:33:46;101706.74;;;1.20;89.31
61478;BME280;47345;52.334;10.392;2023-03-03T00:36:36;101708.11;;;1.16;89.53
61478;BME280;47345;52.334;10.392;2023-03-03T00:39:19;101702.64;;;1.10;89.42
61478;BME280;47345;52.334;10.392;2023-03-03T00:41:50;101703.14;;;1.06;89.51
61478;BME280;47345;52.334;10.392;2023-03-03T00:44:41;101715.17;;;1.04;89.70
61478;BME280;47345;52.334;10.392;2023-03-03T00:47:29;101710.93;;;1.01;89.63
61478;BME280;47345;52.334;10.392;2023-03-03T00:50:27;101709.73;;;1.00;89.87
61478;BME280;47345;52.334;10.392;2023-03-03T00:53:12;101706.10;;;1.01;89.96
61478;BME280;47345;52.334;10.392;2023-03-03T00:55:46;101707.31;;;0.99;89.81
61478;BME280;47345;52.334;10.392;2023-03-03T00:58:17;101706.92;;;0.95;90.09
61478;BME280;47345;52.334;10.392;2023-03-03T01:00:51;101700.94;;;0.88;90.08
61478;BME280;47345;52.334;10.392;2023-03-03T01:03:23;101690.11;;;0.89;90.32
61478;BME280;47345;52.334;10.392;2023-03-03T01:05:54;101685.17;;;0.93;90.44
61478;BME280;47345;52.334;10.392;2023-03-03T01:08:25;101688.80;;;0.97;90.92
61478;BME280;47345;52.334;10.392;2023-03-03T01:10:57;101688.70;;;1.00;90.59
61478;BME280;47345;52.334;10.392;2023-03-03T01:13:31;101688.20;;;1.05;90.54
61478;BME280;47345;52.334;10.392;2023-03-03T01:16:07;101689.66;;;1.09;90.64
61478;BME280;47345;52.334;10.392;2023-03-03T01:18:38;101694.27;;;1.12;90.49
61478;BME280;47345;52.334;10.392;2023-03-03T01:21:10;101687.02;;;1.15;90.44
61478;BME280;47345;52.334;10.392;2023-03-03T01:23:40;101692.16;;;1.18;90.42
61478;BME280;47345;52.334;10.392;2023-03-03T01:26:11;101699.88;;;1.21;90.65
61478;BME280;47345;52.334;10.392;2023-03-03T01:28:41;101695.95;;;1.20;90.01
61478;BME280;47345;52.334;10.392;2023-03-03T01:31:12;101698.80;;;1.20;90.04
61478;BME280;47345;52.334;10.392;2023-03-03T01:33:42;101690.10;;;1.19;89.89
61478;BME280;47345;52.334;10.392;2023-03-03T01:36:13;101682.75;;;1.19;89.94
61478;BME280;47345;52.334;10.392;2023-03-03T01:38:43;101682.98;;;1.18;89.74
61478;BME280;47345;52.334;10.392;2023-03-03T01:41:14;101686.33;;;1.17;89.63
61478;BME280;47345;52.334;10.392;2023-03-03T01:43:46;101693.30;;;1.15;89.53
61478;BME280;47345;52.334;10.392;2023-03-03T01:46:36;101694.69;;;1.11;89.43
61478;BME280;47345;52.334;10.392;2023-03-03T01:49:14;101697.77;;;1.11;89.53
61478;BME280;47345;52.334;10.392;2023-03-03T01:51:49;101704.71;;;1.09;89.81
61478;BME280;47345;52.334;10.392;2023-03-03T01:54:25;101698.36;;;1.10;89.64
61478;BME280;47345;52.334;10.392;2023-03-03T01:57:00;101693.40;;;1.11;89.99
61478;BME280;47345;52.334;10.392;2023-03-03T01:59:35;101693.98;;;1.11;89.78
61478;BME280;47345;52.334;10.392;2023-03-03T02:02:08;101698.71;;;1.12;90.05
61478;BME280;47345;52.334;10.392;2023-03-03T02:04:39;101693.39;;;1.12;89.91
61478;BME280;47345;52.334;10.392;2023-03-03T02:07:10;101682.60;;;1.12;90.26
61478;BME280;47345;52.334;10.392;2023-03-03T02:09:47;101682.80;;;1.11;90.19
61478;BME280;47345;52.334;10.392;2023-03-03T02:12:25;101677.17;;;1.12;90.51
61478;BME280;47345;52.334;10.392;2023-03-03T02:14:58;101674.35;;;1.11;90.19
61478;BME280;47345;52.334;10.392;2023-03-03T02:17:28;101673.05;;;1.10;90.17
61478;BME280;47345;52.334;10.392;2023-03-03T02:20:04;101673.48;;;1.04;90.10
61478;BME280;47345;52.334;10.392;2023-03-03T02:22:42;101676.23;;;1.01;90.17
61478;BME280;47345;52.334;10.392;2023-03-03T02:25:17;101673.20;;;0.99;90.49
61478;BME280;47345;52.334;10.392;2023-03-03T02:27:51;101669.33;;;0.98;90.32
61478;BME280;47345;52.334;10.392;2023-03-03T02:30:23;101660.44;;;0.97;90.27
61478;BME280;47345;52.334;10.392;2023-03-03T02:32:54;101662.33;;;0.98;90.35
61478;BME280;47345;52.334;10.392;2023-03-03T02:35:31;101667.45;;;1.01;90.32
61478;BME280;47345;52.334;10.392;2023-03-03T02:38:16;101666.73;;;1.03;90.32
61478;BME280;47345;52.334;10.392;2023-03-03T02:40:53;101668.09;;;1.02;90.16
61478;BME280;47345;52.334;10.392;2023-03-03T02:43:35;101663.04;;;1.00;90.12
61478;BME280;47345;52.334;10.392;2023-03-03T02:46:09;101653.64;;;0.99;90.27
61478;BME280;47345;52.334;10.392;2023-03-03T02:48:39;101653.14;;;0.98;90.26
61478;BME280;47345;52.334;10.392;2023-03-03T02:51:09;101653.16;;;0.98;90.14
61478;BME280;47345;52.334;10.392;2023-03-03T02:53:40;101651.58;;;0.97;89.89
61478;BME280;47345;52.334;10.392;2023-03-03T02:56:10;101648.69;;;0.98;89.95
61478;BME280;47345;52.334;10.392;2023-03-03T02:58:41;101651.34;;;0.98;90.04
61478;BME280;47345;52.334;10.392;2023-03-03T03:01:12;101652.14;;;0.99;89.69
61478;BME280;47345;52.334;10.392;2023-03-03T03:03:42;101655.47;;;1.03;89.99
61478;BME280;47345;52.334;10.392;2023-03-03T03:06:13;101655.37;;;1.07;89.83
61478;BME280;47345;52.334;10.392;2023-03-03T03:08:44;101653.51;;;1.07;89.52
61478;BME280;47345;52.334;10.392;2023-03-03T03:11:14;101658.81;;;1.08;89.56
61478;BME280;47345;52.334;10.392;2023-03-03T03:13:44;101658.63;;;1.08;89.31
61478;BME280;47345;52.334;10.392;2023-03-03T03:16:15;101665.38;;;1.07;89.21
61478;BME280;47345;52.334;10.392;2023-03-03T03:18:45;101667.98;;;1.06;89.35
61478;BME280;47345;52.334;10.392;2023-03-03T03:21:15;101665.75;;;1.02;89.21
61478;BME280;47345;52.334;10.392;2023-03-03T03:23:46;101665.39;;;1.02;89.35
61478;BME280;47345;52.334;10.392;2023-03-03T03:26:17;101666.73;;;1.03;89.49
61478;BME280;47345;52.334;10.392;2023-03-03T03:28:49;101665.37;;;1.05;89.28
61478;BME280;47345;52.334;10.392;2023-03-03T03:31:21;101672.05;;;1.07;89.30
61478;BME280;47345;52.334;10.392;2023-03-03T03:33:51;101662.61;;;1.08;89.46
61478;BME280;47345;52.334;10.392;2023-03-03T03:36:22;101666.11;;;1.09;89.35
61478;BME280;47345;52.334;10.392;2023-03-03T03:38:52;101657.77;;;1.10;89.59
61478;BME280;47345;52.334;10.392;2023-03-03T03:41:22;101661.41;;;1.09;89.36
61478;BME280;47345;52.334;10.392;2023-03-03T03:43:53;101662.95;;;1.08;89.50
61478;BME280;47345;52.334;10.392;2023-03-03T03:46:23;101664.72;;;1.06;89.29
61478;BME280;47345;52.334;10.392;2023-03-03T03:48:53;101668.75;;;1.05;89.56
61478;BME280;47345;52.334;10.392;2023-03-03T03:51:24;101672.36;;;1.05;89.58
61478;BME280;47345;52.334;10.392;2023-03-03T03:53:54;101675.83;;;1.04;89.32
61478;BME280;47345;52.334;10.392;2023-03-03T03:56:24;101676.17;;;1.02;89.32
61478;BME280;47345;52.334;10.392;2023-03-03T03:58:55;101679.63;;;1.04;89.45
61478;BME280;47345;52.334;10.392;2023-03-03T04:01:25;101678.59;;;1.06;89.42
61478;BME280;47345;52.334;10.392;2023-03-03T04:03:56;101685.64;;;1.07;89.19
61478;BME280;47345;52.334;10.392;2023-03-03T04:06:27;101690.68;;;1.05;89.13
61478;BME280;47345;52.334;10.392;2023-03-03T04:08:57;101688.64;;;1.04;89.17
61478;BME280;47345;52.334;10.392;2023-03-03T04:11:27;101690.42;;;1.06;89.47
61478;BME280;47345;52.334;10.392;2023-03-03T04:13:58;101685.86;;;1.09;89.28
61478;BME280;47345;52.334;10.392;2023-03-03T04:16:28;101682.81;;;1.11;89.38
61478;BME280;47345;52.334;10.392;2023-03-03T04:18:59;101685.84;;;1.14;89.20
61478;BME280;47345;52.334;10.392;2023-03-03T04:21:30;101688.20;;;1.14;89.11
61478;BME280;47345;52.334;10.392;2023-03-03T04:24:00;101695.14;;;1.12;89.07
61478;BME280;47345;52.334;10.392;2023-03-03T04:26:30;101692.65;;;1.10;88.96
61478;BME280;47345;52.334;10.392;2023-03-03T04:29:01;101694.54;;;1.04;88.74
61478;BME280;47345;52.334;10.392;2023-03-03T04:31:31;101688.36;;;1.00;88.84
61478;BME280;47345;52.334;10.392;2023-03-03T04:34:02;101688.88;;;0.98;88.99
61478;BME280;47345;52.334;10.392;2023-03-03T04:36:32;101692.80;;;0.96;89.33
61478;BME280;47345;52.334;10.392;2023-03-03T04:39:03;101694.52;;;0.95;89.29
61478;BME280;47345;52.334;10.392;2023-03-03T04:41:33;101695.30;;;0.94;89.49
61478;BME280;47345;52.334;10.392;2023-03-03T04:44:05;101695.58;;;0.95;89.56
61478;BME280;47345;52.334;10.392;2023-03-03T04:46:35;101695.17;;;0.96;89.36
61478;BME280;47345;52.334;10.392;2023-03-03T04:49:06;101701.68;;;0.95;89.18
61478;BME280;47345;52.334;10.392;2023-03-03T04:51:40;101699.77;;;0.92;89.05
61478;BME280;47345;52.334;10.392;2023-03-03T04:54:11;101703.39;;;0.92;89.12
61478;BME280;47345;52.334;10.392;2023-03-03T04:56:41;101701.55;;;0.93;89.51
61478;BME280;47345;52.334;10.392;2023-03-03T04:59:12;101702.16;;;0.96;89.53
61478;BME280;47345;52.334;10.392;2023-03-03T05:01:43;101704.17;;;1.00;89.61
61478;BME280;47345;52.334;10.392;2023-03-03T05:04:14;101705.61;;;1.05;89.78
61478;BME280;47345;52.334;10.392;2023-03-03T05:06:45;101697.77;;;1.09;89.85
61478;BME280;47345;52.334;10.392;2023-03-03T05:09:15;101692.70;;;1.11;89.53
61478;BME280;47345;52.334;10.392;2023-03-03T05:11:46;101687.75;;;1.12;89.46
61478;BME280;47345;52.334;10.392;2023-03-03T05:14:17;101686.55;;;1.14;89.30
61478;BME280;47345;52.334;10.392;2023-03-03T05:16:47;101684.52;;;1.15;89.21
61478;BME280;47345;52.334;10.392;2023-03-03T05:19:17;101683.61;;;1.15;89.19
61478;BME280;47345;52.334;10.392;2023-03-03T05:21:49;101679.21;;;1.14;89.17
61478;BME280;47345;52.334;10.392;2023-03-03T05:24:19;101678.22;;;1.13;89.15
61478;BME280;47345;52.334;10.392;2023-03-03T05:26:50;101674.08;;;1.15;89.35
61478;BME280;47345;52.334;10.392;2023-03-03T05:29:20;101671.14;;;1.15;89.26
61478;BME280;47345;52.334;10.392;2023-03-03T05:31:51;101662.33;;;1.16;88.84
61478;BME280;47345;52.334;10.392;2023-03-03T05:34:22;101656.61;;;1.15;88.80
61478;BME280;47345;52.334;10.392;2023-03-03T05:36:52;101658.30;;;1.17;88.88
61478;BME280;47345;52.334;10.392;2023-03-03T05:39:23;101656.05;;;1.18;88.80
61478;BME280;47345;52.334;10.392;2023-03-03T05:41:53;101658.10;;;1.19;88.73
61478;BME280;47345;52.334;10.392;2023-03-03T05:44:25;101659.77;;;1.21;88.71
61478;BME280;47345;52.334;10.392;2023-03-03T05:46:55;101661.27;;;1.25;89.12
61478;BME280;47345;52.334;10.392;2023-03-03T05:49:27;101662.59;;;1.28;89.16
61478;BME280;47345;52.334;10.392;2023-03-03T05:51:57;101670.98;;;1.31;88.77
61478;BME280;47345;52.334;10.392;2023-03-03T05:54:29;101677.14;;;1.33;88.72
61478;BME280;47345;52.334;10.392;2023-03-03T05:57:00;101676.98;;;1.35;88.46
61478;BME280;47345;52.334;10.392;2023-03-03T05:59:30;101685.16;;;1.38;88.60
61478;BME280;47345;52.334;10.392;2023-03-03T06:02:01;101685.10;;;1.41;88.12
61478;BME280;47345;52.334;10.392;2023-03-03T06:04:32;101689.52;;;1.42;87.95
61478;BME280;47345;52.334;10.392;2023-03-03T06:07:04;101690.54;;;1.45;87.85
61478;BME280;47345;52.334;10.392;2023-03-03T06:09:38;101694.80;;;1.48;87.64
61478;BME280;47345;52.334;10.392;2023-03-03T06:12:10;101701.59;;;1.53;87.56
61478;BME280;47345;52.334;10.392;2023-03-03T06:14:41;101712.77;;;1.57;87.67
61478;BME280;47345;52.334;10.392;2023-03-03T06:17:12;101712.45;;;1.59;87.32
61478;BME280;47345;52.334;10.392;2023-03-03T06:19:43;101719.05;;;1.59;87.07
61478;BME280;47345;52.334;10.392;2023-03-03T06:22:13;101716.52;;;1.60;87.03
61478;BME280;47345;52.334;10.392;2023-03-03T06:24:44;101716.34;;;1.58;86.94
61478;BME280;47345;52.334;10.392;2023-03-03T06:27:15;101723.98;;;1.59;87.11
61478;BME280;47345;52.334;10.392;2023-03-03T06:29:46;101723.23;;;1.59;87.11
61478;BME280;47345;52.334;10.392;2023-03-03T06:32:16;101723.98;;;1.59;87.32
61478;BME280;47345;52.334;10.392;2023-03-03T06:34:47;101723.71;;;1.60;87.18
61478;BME280;47345;52.334;10.392;2023-03-03T06:37:17;101724.73;;;1.60;87.39
61478;BME280;47345;52.334;10.392;2023-03-03T06:39:48;101727.95;;;1.61;87.47
61478;BME280;47345;52.334;10.392;2023-03-03T06:42:20;101729.77;;;1.60;87.53
61478;BME280;47345;52.334;10.392;2023-03-03T06:44:53;101733.55;;;1.60;87.40
61478;BME280;47345;52.334;10.392;2023-03-03T06:47:23;101729.59;;;1.60;87.15
61478;BME280;47345;52.334;10.392;2023-03-03T06:49:54;101731.73;;;1.61;87.42
61478;BME280;47345;52.334;10.392;2023-03-03T06:52:26;101732.15;;;1.60;87.19
61478;BME280;47345;52.334;10.392;2023-03-03T06:54:58;101732.24;;;1.59;87.47
61478;BME280;47345;52.334;10.392;2023-03-03T06:57:31;101728.17;;;1.58;87.39
61478;BME280;47345;52.334;10.392;2023-03-03T07:00:22;101731.20;;;1.58;87.44
61478;BME280;47345;52.334;10.392;2023-03-03T07:02:59;101734.19;;;1.59;87.31
61478;BME280;47345;52.334;10.392;2023-03-03T07:05:31;101734.02;;;1.61;87.36
61478;BME280;47345;52.334;10.392;2023-03-03T07:08:08;101735.38;;;1.62;87.46
61478;BME280;47345;52.334;10.392;2023-03-03T07:10:43;101738.86;;;1.64;87.28
61478;BME280;47345;52.334;10.392;2023-03-03T07:13:25;101743.45;;;1.65;87.25
61478;BME280;47345;52.334;10.392;2023-03-03T07:15:58;101741.92;;;1.66;87.02
61478;BME280;47345;52.334;10.392;2023-03-03T07:18:36;101748.63;;;1.68;87.27
61478;BME280;47345;52.334;10.392;2023-03-03T07:21:15;101748.48;;;1.70;87.21
61478;BME280;47345;52.334;10.392;2023-03-03T07:23:47;101751.52;;;1.72;87.23
61478;BME280;47345;52.334;10.392;2023-03-03T07:26:20;101753.88;;;1.74;86.99
61478;BME280;47345;52.334;10.392;2023-03-03T07:28:55;101755.48;;;1.74;86.98
61478;BME280;47345;52.334;10.392;2023-03-03T07:31:36;101758.02;;;1.74;87.17
61478;BME280;47345;52.334;10.392;2023-03-03T07:34:17;101755.52;;;1.73;87.15
61478;BME280;47345;52.334;10.392;2023-03-03T07:36:49;101756.81;;;1.73;87.32
61478;BME280;47345;52.334;10.392;2023-03-03T07:39:29;101754.80;;;1.74;87.28
61478;BME280;47345;52.334;10.392;2023-03-03T07:42:19;101760.79;;;1.75;86.95
61478;BME280;47345;52.334;10.392;2023-03-03T07:44:51;101762.61;;;1.75;87.07
61478;BME280;47345;52.334;10.392;2023-03-03T07:47:25;101766.45;;;1.74;87.02
61478;BME280;47345;52.334;10.392;2023-03-03T07:49:57;101770.89;;;1.75;87.39
61478;BME280;47345;52.334;10.392;2023-03-03T07:52:36;101773.55;;;1.75;87.23
61478;BME280;47345;52.334;10.392;2023-03-03T07:55:24;101780.52;;;1.73;87.02
61478;BME280;47345;52.334;10.392;2023-03-03T07:58:05;101785.73;;;1.69;86.74
61478;BME280;47345;52.334;10.392;2023-03-03T08:01:26;101789.52;;;1.67;86.91
61478;BME280;47345;52.334;10.392;2023-03-03T08:03:58;101792.81;;;1.66;87.17
61478;BME280;47345;52.334;10.392;2023-03-03T08:06:46;101789.94;;;1.66;87.09
61478;BME280;47345;52.334;10.392;2023-03-03T08:09:41;101799.72;;;1.63;86.61
61478;BME280;47345;52.334;10.392;2023-03-03T08:12:38;101791.39;;;1.61;86.80
61478;BME280;47345;52.334;10.392;2023-03-03T08:15:13;101787.34;;;1.65;87.11
61478;BME280;47345;52.334;10.392;2023-03-03T08:17:45;101787.02;;;1.71;87.10
61478;BME280;47345;52.334;10.392;2023-03-03T08:20:48;101787.82;;;1.79;87.06
61478;BME280;47345;52.334;10.392;2023-03-03T08:23:20;101788.59;;;1.90;87.09
61478;BME280;47345;52.334;10.392;2023-03-03T08:25:52;101790.20;;;1.97;86.82
61478;BME280;47345;52.334;10.392;2023-03-03T08:28:23;101796.39;;;2.02;86.45
61478;BME280;47345;52.334;10.392;2023-03-03T08:30:54;101793.62;;;2.03;86.41
61478;BME280;47345;52.334;10.392;2023-03-03T08:33:43;101793.20;;;2.04;86.59
61478;BME280;47345;52.334;10.392;2023-03-03T08:36:14;101796.55;;;2.07;86.45
61478;BME280;47345;52.334;10.392;2023-03-03T08:38:45;101795.85;;;2.09;86.43
61478;BME280;47345;52.334;10.392;2023-03-03T08:41:15;101799.05;;;2.10;86.19
61478;BME280;47345;52.334;10.392;2023-03-03T08:43:46;101798.54;;;2.11;86.16
61478;BME280;47345;52.334;10.392;2023-03-03T08:46:16;101794.70;;;2.14;86.28
61478;BME280;47345;52.334;10.392;2023-03-03T08:48:47;101795.94;;;2.17;86.51
61478;BME280;47345;52.334;10.392;2023-03-03T08:51:18;101795.05;;;2.19;86.49
61478;BME280;47345;52.334;10.392;2023-03-03T08:53:49;101795.13;;;2.20;86.58
61478;BME280;47345;52.334;10.392;2023-03-03T08:56:20;101793.92;;;2.22;86.25
61478;BME280;47345;52.334;10.392;2023-03-03T08:58:50;101796.66;;;2.23;86.54
61478;BME280;47345;52.334;10.392;2023-03-03T09:01:31;101799.89;;;2.26;86.81
61478;BME280;47345;52.334;10.392;2023-03-03T09:04:02;101802.23;;;2.28;86.27
61478;BME280;47345;52.334;10.392;2023-03-03T09:06:32;101800.72;;;2.29;86.29
61478;BME280;47345;52.334;10.392;2023-03-03T09:09:03;101800.62;;;2.30;86.39
61478;BME280;47345;52.334;10.392;2023-03-03T09:11:34;101801.95;;;2.29;86.21
61478;BME280;47345;52.334;10.392;2023-03-03T09:14:11;101803.46;;;2.30;85.93
61478;BME280;47345;52.334;10.392;2023-03-03T09:16:52;101799.75;;;2.34;85.95
61478;BME280;47345;52.334;10.392;2023-03-03T09:19:25;101797.38;;;2.41;86.21
61478;BME280;47345;52.334;10.392;2023-03-03T09:22:01;101797.66;;;2.51;86.05
61478;BME280;47345;52.334;10.392;2023-03-03T09:24:36;101797.73;;;2.59;85.82
61478;BME280;47345;52.334;10.392;2023-03-03T09:27:12;101797.52;;;2.68;85.96
61478;BME280;47345;52.334;10.392;2023-03-03T09:29:44;101798.83;;;2.74;85.55
61478;BME280;47345;52.334;10.392;2023-03-03T09:32:25;101793.05;;;2.78;85.05
61478;BME280;47345;52.334;10.392;2023-03-03T09:35:00;101786.73;;;2.83;84.97
61478;BME280;47345;52.334;10.392;2023-03-03T09:37:36;101791.16;;;2.87;84.77
61478;BME280;47345;52.334;10.392;2023-03-03T09:40:31;101793.63;;;2.90;84.33
61478;BME280;47345;52.334;10.392;2023-03-03T09:43:14;101794.10;;;2.96;84.38
61478;BME280;47345;52.334;10.392;2023-03-03T09:45:58;101800.05;;;3.00;84.40
61478;BME280;47345;52.334;10.392;2023-03-03T09:49:01;101802.48;;;3.01;84.10
61478;BME280;47345;52.334;10.392;2023-03-03T09:52:08;101801.85;;;3.02;84.31
61478;BME280;47345;52.334;10.392;2023-03-03T09:54:52;101803.52;;;3.03;83.75
61478;BME280;47345;52.334;10.392;2023-03-03T09:57:33;101801.59;;;3.07;84.10
61478;BME280;47345;52.334;10.392;2023-03-03T10:00:21;101801.55;;;3.07;83.68
61478;BME280;47345;52.334;10.392;2023-03-03T10:06:07;101805.85;;;3.06;83.48
61478;BME280;47345;52.334;10.392;2023-03-03T10:08:50;101809.65;;;3.05;83.32
61478;BME280;47345;52.334;10.392;2023-03-03T10:11:27;101810.16;;;3.08;83.23
61478;BME280;47345;52.334;10.392;2023-03-03T10:14:09;101808.61;;;3.16;83.56
61478;BME280;47345;52.334;10.392;2023-03-03T10:16:55;101813.38;;;3.25;83.52
61478;BME280;47345;52.334;10.392;2023-03-03T10:19:37;101810.25;;;3.34;83.17
61478;BME280;47345;52.334;10.392;2023-03-03T10:22:18;101808.84;;;3.42;83.14
61478;BME280;47345;52.334;10.392;2023-03-03T10:25:01;101807.27;;;3.50;82.82
61478;BME280;47345;52.334;10.392;2023-03-03T10:27:52;101809.80;;;3.59;82.60
61478;BME280;47345;52.334;10.392;2023-03-03T10:30:36;101810.55;;;3.66;82.30
61478;BME280;47345;52.334;10.392;2023-03-03T10:33:34;101813.34;;;3.72;81.96
61478;BME280;47345;52.334;10.392;2023-03-03T10:36:26;101811.09;;;3.72;81.99
61478;BME280;47345;52.334;10.392;2023-03-03T10:39:11;101814.20;;;3.76;82.03
61478;BME280;47345;52.334;10.392;2023-03-03T10:41:57;101810.59;;;3.80;81.91
61478;BME280;47345;52.334;10.392;2023-03-03T10:44:47;101810.96;;;3.84;81.79
61478;BME280;47345;52.334;10.392;2023-03-03T10:47:38;101808.52;;;3.90;81.81
61478;BME280;47345;52.334;10.392;2023-03-03T10:50:22;101812.06;;;3.88;80.91
61478;BME280;47345;52.334;10.392;2023-03-03T10:52:52;101806.55;;;3.83;80.70
61478;BME280;47345;52.334;10.392;2023-03-03T10:55:33;101805.30;;;3.81;80.75
61478;BME280;47345;52.334;10.392;2023-03-03T10:58:19;101806.60;;;3.80;80.76
61478;BME280;47345;52.334;10.392;2023-03-03T11:00:58;101811.04;;;3.79;80.47
61478;BME280;47345;52.334;10.392;2023-03-03T11:03:45;101810.33;;;3.79;80.53
61478;BME280;47345;52.334;10.392;2023-03-03T11:06:19;101805.91;;;3.86;80.71
61478;BME280;47345;52.334;10.392;2023-03-03T11:08:53;101802.52;;;3.96;80.83
61478;BME280;47345;52.334;10.392;2023-03-03T11:11:35;101799.02;;;4.01;80.49
61478;BME280;47345;52.334;10.392;2023-03-03T11:14:15;101801.67;;;4.08;80.63
61478;BME280;47345;52.334;10.392;2023-03-03T11:16:56;101798.50;;;4.11;80.11
61478;BME280;47345;52.334;10.392;2023-03-03T11:19:54;101804.31;;;4.10;79.97
61478;BME280;47345;52.334;10.392;2023-03-03T11:22:36;101802.53;;;4.06;79.45
61478;BME280;47345;52.334;10.392;2023-03-03T11:25:19;101792.23;;;4.00;79.67
61478;BME280;47345;52.334;10.392;2023-03-03T11:28:23;101792.88;;;4.01;79.73
61478;BME280;47345;52.334;10.392;2023-03-03T11:31:10;101794.43;;;4.04;79.73
61478;BME280;47345;52.334;10.392;2023-03-03T11:33:50;101788.55;;;4.09;79.93
61478;BME280;47345;52.334;10.392;2023-03-03T11:36:29;101789.05;;;4.20;79.78
61478;BME280;47345;52.334;10.392;2023-03-03T11:39:06;101781.98;;;4.28;79.47
61478;BME280;47345;52.334;10.392;2023-03-03T11:41:40;101778.13;;;4.35;79.51
61478;BME280;47345;52.334;10.392;2023-03-03T11:44:20;101784.03;;;4.43;79.74
61478;BME280;47345;52.334;10.392;2023-03-03T11:46:54;101783.01;;;4.47;79.02
61478;BME280;47345;52.334;10.392;2023-03-03T11:49:31;101777.11;;;4.46;78.97
61478;BME280;47345;52.334;10.392;2023-03-03T11:52:17;101772.80;;;4.50;79.13
61478;BME280;47345;52.334;10.392;2023-03-03T11:54:55;101769.15;;;4.58;79.11
61478;BME280;47345;52.334;10.392;2023-03-03T11:57:32;101766.36;;;4.66;78.82
61478;BME280;47345;52.334;10.392;2023-03-03T12:00:18;101764.64;;;4.75;78.71
61478;BME280;47345;52.334;10.392;2023-03-03T12:03:01;101757.09;;;4.84;78.56
61478;BME280;47345;52.334;10.392;2023-03-03T12:05:55;101757.14;;;4.88;78.34
61478;BME280;47345;52.334;10.392;2023-03-03T12:08:40;101755.71;;;4.87;78.21
61478;BME280;47345;52.334;10.392;2023-03-03T12:11:19;101759.15;;;4.82;77.54
61478;BME280;47345;52.334;10.392;2023-03-03T12:13:57;101752.72;;;4.75;77.40
61478;BME280;47345;52.334;10.392;2023-03-03T12:16:40;101745.36;;;4.71;77.66
61478;BME280;47345;52.334;10.392;2023-03-03T12:19:19;101749.42;;;4.74;77.98
61478;BME280;47345;52.334;10.392;2023-03-03T12:24:53;101738.88;;;4.77;78.24
61478;BME280;47345;52.334;10.392;2023-03-03T12:27:33;101738.06;;;4.79;78.22
61478;BME280;47345;52.334;10.392;2023-03-03T12:30:19;101740.40;;;4.83;78.05
61478;BME280;47345;52.334;10.392;2023-03-03T12:33:04;101732.50;;;4.90;77.78
61478;BME280;47345;52.334;10.392;2023-03-03T12:35:44;101736.84;;;4.96;77.78
61478;BME280;47345;52.334;10.392;2023-03-03T12:38:26;101737.13;;;4.97;77.60
61478;BME280;47345;52.334;10.392;2023-03-03T12:41:04;101726.09;;;4.95;77.29
61478;BME280;47345;52.334;10.392;2023-03-03T12:43:48;101722.52;;;4.91;77.35
61478;BME280;47345;52.334;10.392;2023-03-03T12:46:27;101717.80;;;4.91;77.40
61478;BME280;47345;52.334;10.392;2023-03-03T12:49:02;101721.85;;;4.96;77.59
61478;BME280;47345;52.334;10.392;2023-03-03T12:51:39;101723.35;;;5.01;77.21
61478;BME280;47345;52.334;10.392;2023-03-03T12:54:36;101712.15;;;5.05;77.11
61478;BME280;47345;52.334;10.392;2023-03-03T12:57:18;101713.90;;;5.11;76.50
61478;BME280;47345;52.334;10.392;2023-03-03T13:00:07;101709.42;;;5.13;76.63
61478;BME280;47345;52.334;10.392;2023-03-03T13:02:48;101712.49;;;5.19;76.91
61478;BME280;47345;52.334;10.392;2023-03-03T13:05:28;101715.97;;;5.29;77.32
61478;BME280;47345;52.334;10.392;2023-03-03T13:08:19;101714.48;;;5.41;77.03
61478;BME280;47345;52.334;10.392;2023-03-03T13:11:10;101714.83;;;5.54;76.90
61478;BME280;47345;52.334;10.392;2023-03-03T13:13:48;101710.15;;;5.62;76.36
61478;BME280;47345;52.334;10.392;2023-03-03T13:16:26;101703.57;;;5.66;76.19
61478;BME280;47345;52.334;10.392;2023-03-03T13:19:12;101703.07;;;5.66;75.83
61478;BME280;47345;52.334;10.392;2023-03-03T13:21:49;101693.66;;;5.58;75.86
61478;BME280;47345;52.334;10.392;2023-03-03T13:24:26;101692.35;;;5.53;75.76
61478;BME280;47345;52.334;10.392;2023-03-03T13:27:06;101691.06;;;5.47;75.95
61478;BME280;47345;52.334;10.392;2023-03-03T13:29:42;101691.06;;;5.45;75.82
61478;BME280;47345;52.334;10.392;2023-03-03T13:32:18;101690.00;;;5.44;76.13
61478;BME280;47345;52.334;10.392;2023-03-03T13:34:56;101685.02;;;5.39;76.09
61478;BME280;47345;52.334;10.392;2023-03-03T13:37:32;101682.67;;;5.39;76.44
61478;BME280;47345;52.334;10.392;2023-03-03T13:40:13;101680.52;;;5.41;76.01
61478;BME280;47345;52.334;10.392;2023-03-03T13:42:48;101679.76;;;5.39;75.82